createdAt,value
2019-04-07T00:00:06.212Z,0.00
2019-04-07T00:01:06.349Z,0.00
2019-04-07T00:02:06.319Z,0.00
2019-04-07T00:03:06.825Z,0.00
2019-04-07T00:04:06.513Z,0.00
2019-04-07T00:05:13.014Z,0.00
2019-04-07T00:06:07.482Z,0.00
2019-04-07T00:07:06.128Z,0.00
2019-04-07T00:08:06.703Z,0.00
2019-04-07T00:09:06.144Z,0.00
2019-04-07T00:10:06.056Z,0.00
2019-04-07T00:11:06.096Z,0.00
2019-04-07T00:12:06.123Z,0.00
2019-04-07T00:13:06.072Z,0.00
2019-04-07T00:14:06.008Z,0.00
2019-04-07T00:15:06.085Z,0.00
2019-04-07T00:16:06.031Z,0.00
2019-04-07T00:17:05.997Z,0.00
2019-04-07T00:18:06.588Z,0.00
2019-04-07T00:19:06.630Z,0.00
2019-04-07T00:20:07.130Z,0.00
2019-04-07T00:21:06.237Z,0.00
2019-04-07T00:22:05.918Z,0.00
2019-04-07T00:23:05.944Z,0.00
2019-04-07T00:24:05.902Z,0.00
2019-04-07T00:25:05.954Z,0.00
2019-04-07T00:26:06.086Z,0.00
2019-04-07T00:27:05.907Z,0.00
2019-04-07T00:28:05.854Z,0.00
2019-04-07T00:29:05.905Z,0.00
2019-04-07T00:30:06.525Z,0.00
2019-04-07T00:31:05.896Z,0.00
2019-04-07T00:32:05.968Z,0.00
2019-04-07T00:33:06.349Z,0.00
2019-04-07T00:34:05.795Z,0.00
2019-04-07T00:35:05.818Z,0.00
2019-04-07T00:36:05.806Z,0.00
2019-04-07T00:37:05.844Z,0.00
2019-04-07T00:38:05.751Z,0.00
2019-04-07T00:39:05.978Z,0.00
2019-04-07T00:40:05.723Z,0.00
2019-04-07T00:41:05.788Z,0.00
2019-04-07T00:42:05.694Z,0.00
2019-04-07T00:43:05.773Z,0.00
2019-04-07T00:44:06.166Z,0.00
2019-04-07T00:45:06.128Z,0.00
2019-04-07T00:46:06.282Z,0.00
2019-04-07T00:47:06.316Z,0.00
2019-04-07T00:48:05.816Z,0.00
2019-04-07T00:49:05.623Z,0.00
2019-04-07T00:50:05.607Z,0.00
2019-04-07T00:51:05.626Z,0.00
2019-04-07T00:52:06.151Z,0.00
2019-04-07T00:53:05.724Z,0.00
2019-04-07T00:54:06.135Z,0.00
2019-04-07T00:55:05.652Z,0.00
2019-04-07T00:56:05.556Z,0.00
2019-04-07T00:57:05.602Z,0.00
2019-04-07T00:58:06.151Z,0.00
2019-04-07T00:59:05.579Z,0.00
2019-04-07T01:00:05.927Z,0.00
2019-04-07T01:01:05.496Z,0.00
2019-04-07T01:02:05.863Z,0.00
2019-04-07T01:03:05.664Z,0.00
2019-04-07T01:04:05.675Z,0.00
2019-04-07T01:05:06.017Z,0.00
2019-04-07T01:06:05.419Z,0.00
2019-04-07T01:07:05.469Z,0.00
2019-04-07T01:08:05.404Z,0.00
2019-04-07T01:09:05.444Z,0.00
2019-04-07T01:10:06.116Z,0.00
2019-04-07T01:11:05.653Z,0.00
2019-04-07T01:12:06.037Z,0.00
2019-04-07T01:13:05.439Z,0.00
2019-04-07T01:14:05.979Z,0.00
2019-04-07T01:15:05.392Z,0.00
2019-04-07T01:16:05.310Z,0.00
2019-04-07T01:17:05.343Z,0.00
2019-04-07T01:18:05.418Z,0.00
2019-04-07T01:19:05.744Z,0.00
2019-04-07T01:20:05.321Z,0.00
2019-04-07T01:21:05.330Z,0.00
2019-04-07T01:22:05.435Z,0.00
2019-04-07T01:23:05.461Z,0.00
2019-04-07T01:24:05.600Z,0.00
2019-04-07T01:25:05.250Z,0.00
2019-04-07T01:26:05.198Z,0.00
2019-04-07T01:27:05.268Z,0.00
2019-04-07T01:28:05.467Z,0.00
2019-04-07T01:29:05.570Z,0.00
2019-04-07T01:30:05.152Z,0.00
2019-04-07T01:31:05.560Z,0.00
2019-04-07T01:32:05.120Z,0.00
2019-04-07T01:33:05.417Z,0.00
2019-04-07T01:34:05.110Z,0.00
2019-04-07T01:35:05.752Z,0.00
2019-04-07T01:36:05.276Z,0.00
2019-04-07T01:37:05.589Z,0.00
2019-04-07T01:38:05.081Z,0.00
2019-04-07T01:39:05.148Z,0.00
2019-04-07T01:40:05.688Z,0.00
2019-04-07T01:41:05.028Z,0.00
2019-04-07T01:42:05.084Z,0.00
2019-04-07T01:43:05.331Z,0.00
2019-04-07T01:44:04.990Z,0.00
2019-04-07T01:45:05.169Z,0.00
2019-04-07T01:46:05.261Z,0.00
2019-04-07T01:47:05.634Z,0.00
2019-04-07T01:48:04.982Z,0.00
2019-04-07T01:49:05.014Z,0.00
2019-04-07T01:50:05.645Z,0.00
2019-04-07T01:51:05.648Z,0.00
2019-04-07T01:52:05.114Z,0.00
2019-04-07T01:53:04.984Z,0.00
2019-04-07T01:54:05.330Z,0.00
2019-04-07T01:55:04.959Z,0.00
2019-04-07T01:56:05.431Z,0.00
2019-04-07T01:57:05.712Z,0.00
2019-04-07T01:58:04.841Z,0.00
2019-04-07T01:59:04.885Z,0.00
2019-04-07T02:00:04.802Z,0.00
2019-04-07T02:01:05.427Z,0.00
2019-04-07T02:02:04.780Z,0.00
2019-04-07T02:03:04.971Z,0.00
2019-04-07T02:04:04.962Z,0.00
2019-04-07T02:05:05.549Z,0.00
2019-04-07T02:06:05.785Z,0.00
2019-04-07T02:07:05.099Z,0.00
2019-04-07T02:08:04.727Z,0.00
2019-04-07T02:09:04.744Z,0.00
2019-04-07T02:10:05.275Z,0.00
2019-04-07T02:11:05.099Z,0.00
2019-04-07T02:12:04.862Z,0.00
2019-04-07T02:13:05.959Z,0.00
2019-04-07T02:14:04.735Z,0.00
2019-04-07T02:15:04.689Z,0.00
2019-04-07T02:16:04.965Z,0.00
2019-04-07T02:17:05.411Z,0.00
2019-04-07T02:18:04.626Z,0.00
2019-04-07T02:19:05.103Z,0.00
2019-04-07T02:20:05.266Z,0.00
2019-04-07T02:21:05.328Z,0.00
2019-04-07T02:22:04.655Z,0.00
2019-04-07T02:23:05.189Z,0.00
2019-04-07T02:24:04.834Z,0.00
2019-04-07T02:25:04.552Z,0.00
2019-04-07T02:26:04.504Z,0.00
2019-04-07T02:27:05.216Z,0.00
2019-04-07T02:28:04.933Z,0.00
2019-04-07T02:29:04.979Z,0.00
2019-04-07T02:30:04.460Z,0.00
2019-04-07T02:31:04.493Z,0.00
2019-04-07T02:32:04.441Z,0.00
2019-04-07T02:33:04.547Z,0.00
2019-04-07T02:34:05.215Z,0.00
2019-04-07T02:35:04.425Z,0.00
2019-04-07T02:36:17.170Z,0.00
2019-04-07T02:37:06.538Z,0.00
2019-04-07T02:38:04.479Z,0.00
2019-04-07T02:39:04.589Z,0.00
2019-04-07T02:40:05.018Z,0.00
2019-04-07T02:41:04.398Z,0.00
2019-04-07T02:42:04.675Z,0.00
2019-04-07T02:43:05.202Z,0.00
2019-04-07T02:44:04.916Z,0.00
2019-04-07T02:45:04.281Z,0.00
2019-04-07T02:46:04.321Z,0.00
2019-04-07T02:47:04.284Z,0.00
2019-04-07T02:48:05.142Z,0.00
2019-04-07T02:49:04.260Z,0.00
2019-04-07T02:50:04.321Z,0.00
2019-04-07T02:51:04.221Z,0.00
2019-04-07T02:52:04.235Z,0.00
2019-04-07T02:53:04.193Z,0.00
2019-04-07T02:54:04.279Z,0.00
2019-04-07T02:55:04.536Z,0.00
2019-04-07T02:56:04.279Z,0.00
2019-04-07T02:57:04.156Z,0.00
2019-04-07T02:58:04.519Z,0.00
2019-04-07T02:59:04.659Z,0.00
2019-04-07T03:00:04.570Z,0.00
2019-04-07T03:01:04.181Z,0.00
2019-04-07T03:02:04.738Z,0.00
2019-04-07T03:03:04.805Z,0.00
2019-04-07T03:04:04.801Z,0.00
2019-04-07T03:05:04.976Z,0.00
2019-04-07T03:06:04.980Z,0.00
2019-04-07T03:07:04.828Z,0.00
2019-04-07T03:08:04.037Z,0.00
2019-04-07T03:09:04.027Z,0.00
2019-04-07T03:10:04.447Z,0.00
2019-04-07T03:11:03.996Z,0.00
2019-04-07T03:12:05.041Z,0.00
2019-04-07T03:13:05.835Z,0.00
2019-04-07T03:14:04.026Z,0.00
2019-04-07T03:15:03.948Z,0.00
2019-04-07T03:16:04.471Z,0.00
2019-04-07T03:17:04.178Z,0.00
2019-04-07T03:18:04.807Z,0.00
2019-04-07T03:19:04.491Z,0.00
2019-04-07T03:20:04.985Z,0.00
2019-04-07T03:21:03.916Z,0.00
2019-04-07T03:22:03.936Z,0.00
2019-04-07T03:23:03.865Z,0.00
2019-04-07T03:24:04.001Z,0.00
2019-04-07T03:25:03.885Z,0.00
2019-04-07T03:26:04.241Z,0.00
2019-04-07T03:27:04.044Z,0.00
2019-04-07T03:28:04.898Z,0.00
2019-04-07T03:29:03.801Z,0.00
2019-04-07T03:30:04.452Z,0.00
2019-04-07T03:31:04.250Z,0.00
2019-04-07T03:32:06.192Z,0.00
2019-04-07T03:33:06.613Z,0.00
2019-04-07T03:34:06.338Z,0.00
2019-04-07T03:35:05.397Z,0.00
2019-04-07T03:36:06.191Z,0.00
2019-04-07T03:37:21.673Z,0.00
2019-04-07T03:38:04.745Z,0.00
2019-04-07T03:39:03.665Z,0.00
2019-04-07T03:40:04.654Z,0.00
2019-04-07T03:41:03.645Z,0.00
2019-04-07T03:42:03.666Z,0.00
2019-04-07T03:43:03.631Z,0.00
2019-04-07T03:44:03.746Z,0.00
2019-04-07T03:45:04.319Z,0.00
2019-04-07T03:46:03.830Z,0.00
2019-04-07T03:47:03.581Z,0.00
2019-04-07T03:48:04.235Z,0.00
2019-04-07T03:49:03.998Z,0.00
2019-04-07T03:50:03.944Z,0.00
2019-04-07T03:51:03.531Z,0.00
2019-04-07T03:52:04.396Z,0.00
2019-04-07T03:53:03.506Z,0.00
2019-04-07T03:54:03.553Z,0.00
2019-04-07T03:55:04.663Z,0.00
2019-04-07T03:56:04.037Z,0.00
2019-04-07T03:57:03.469Z,0.00
2019-04-07T03:58:03.737Z,4.00
2019-04-07T03:59:03.592Z,4.00
2019-04-07T04:00:04.208Z,0.00
2019-04-07T04:01:03.751Z,4.00
2019-04-07T04:02:03.683Z,4.00
2019-04-07T04:03:03.395Z,4.00
2019-04-07T04:04:03.417Z,4.00
2019-04-07T04:05:03.390Z,4.00
2019-04-07T04:06:03.430Z,4.00
2019-04-07T04:07:19.139Z,8.00
2019-04-07T04:08:04.340Z,12.00
2019-04-07T04:09:03.348Z,12.00
2019-04-07T04:10:03.448Z,16.00
2019-04-07T04:11:04.211Z,16.00
2019-04-07T04:12:03.298Z,20.00
2019-04-07T04:13:03.389Z,20.00
2019-04-07T04:14:03.267Z,24.00
2019-04-07T04:15:03.636Z,28.00
2019-04-07T04:16:03.238Z,32.00
2019-04-07T04:17:04.236Z,40.00
2019-04-07T04:18:03.492Z,40.00
2019-04-07T04:19:04.989Z,48.00
2019-04-07T04:20:04.131Z,56.00
2019-04-07T04:21:03.602Z,60.00
2019-04-07T04:22:04.054Z,68.00
2019-04-07T04:23:03.951Z,76.00
2019-04-07T04:24:04.175Z,84.00
2019-04-07T04:25:03.260Z,92.00
2019-04-07T04:26:03.156Z,104.00
2019-04-07T04:27:03.171Z,116.00
2019-04-07T04:28:03.116Z,128.00
2019-04-07T04:29:04.023Z,140.00
2019-04-07T04:30:03.282Z,148.00
2019-04-07T04:31:03.297Z,164.00
2019-04-07T04:32:03.270Z,176.00
2019-04-07T04:33:03.915Z,196.00
2019-04-07T04:34:03.386Z,212.00
2019-04-07T04:35:03.382Z,228.00
2019-04-07T04:36:03.028Z,244.00
2019-04-07T04:37:03.942Z,260.00
2019-04-07T04:38:03.798Z,280.00
2019-04-07T04:39:03.054Z,300.00
2019-04-07T04:40:02.971Z,320.00
2019-04-07T04:41:03.079Z,340.00
2019-04-07T04:42:03.772Z,364.00
2019-04-07T04:43:02.991Z,384.00
2019-04-07T04:44:02.929Z,408.00
2019-04-07T04:45:04.066Z,432.00
2019-04-07T04:46:03.197Z,456.00
2019-04-07T04:47:02.906Z,484.00
2019-04-07T04:48:02.891Z,508.00
2019-04-07T04:49:02.923Z,536.00
2019-04-07T04:50:03.750Z,568.00
2019-04-07T04:51:03.414Z,596.00
2019-04-07T04:52:03.093Z,624.00
2019-04-07T04:53:02.845Z,656.00
2019-04-07T04:54:02.834Z,688.00
2019-04-07T04:55:03.611Z,720.00
2019-04-07T04:56:03.112Z,752.00
2019-04-07T04:57:06.398Z,784.00
2019-04-07T04:58:04.182Z,816.00
2019-04-07T04:59:02.782Z,848.00
2019-04-07T05:00:02.746Z,880.00
2019-04-07T05:01:03.072Z,916.00
2019-04-07T05:02:02.736Z,948.00
2019-04-07T05:03:02.863Z,980.00
2019-04-07T05:04:02.699Z,1016.00
2019-04-07T05:05:02.755Z,1052.00
2019-04-07T05:06:03.575Z,1084.00
2019-04-07T05:07:03.404Z,1120.00
2019-04-07T05:08:05.049Z,1156.00
2019-04-07T05:09:04.510Z,1192.00
2019-04-07T05:10:02.766Z,1228.00
2019-04-07T05:11:03.139Z,1264.00
2019-04-07T05:12:04.791Z,1304.00
2019-04-07T05:13:02.693Z,1340.00
2019-04-07T05:14:02.584Z,1380.00
2019-04-07T05:15:02.593Z,1416.00
2019-04-07T05:16:02.720Z,1452.00
2019-04-07T05:17:02.648Z,1492.00
2019-04-07T05:18:02.529Z,1528.00
2019-04-07T05:19:02.717Z,1560.00
2019-04-07T05:20:02.658Z,1600.00
2019-04-07T05:21:03.112Z,1636.00
2019-04-07T05:22:02.551Z,1668.00
2019-04-07T05:23:02.663Z,1708.00
2019-04-07T05:24:02.650Z,1744.00
2019-04-07T05:25:02.563Z,1784.00
2019-04-07T05:26:02.441Z,1824.00
2019-04-07T05:27:03.143Z,1860.00
2019-04-07T05:28:02.420Z,1896.00
2019-04-07T05:29:02.633Z,1936.00
2019-04-07T05:30:02.551Z,1976.00
2019-04-07T05:31:02.502Z,2012.00
2019-04-07T05:32:02.393Z,2048.00
2019-04-07T05:33:02.452Z,2088.00
2019-04-07T05:34:02.842Z,2124.00
2019-04-07T05:35:02.459Z,2160.00
2019-04-07T05:36:02.326Z,2200.00
2019-04-07T05:37:02.374Z,2248.00
2019-04-07T05:38:04.805Z,2324.00
2019-04-07T05:39:02.353Z,2436.00
2019-04-07T05:40:03.656Z,2564.00
2019-04-07T05:41:02.994Z,2744.00
2019-04-07T05:42:02.318Z,2984.00
2019-04-07T05:43:02.278Z,3140.00
2019-04-07T05:44:02.551Z,3200.00
2019-04-07T05:45:02.309Z,3360.00
2019-04-07T05:46:02.216Z,3552.00
2019-04-07T05:47:02.851Z,3644.00
2019-04-07T05:48:02.197Z,3736.00
2019-04-07T05:49:02.220Z,3828.00
2019-04-07T05:50:04.098Z,3896.00
2019-04-07T05:51:02.366Z,3952.00
2019-04-07T05:52:05.224Z,4012.00
2019-04-07T05:53:02.244Z,4072.00
2019-04-07T05:54:02.605Z,4124.00
2019-04-07T05:55:03.178Z,4184.00
2019-04-07T05:56:02.258Z,4228.00
2019-04-07T05:57:02.565Z,4308.00
2019-04-07T05:58:05.006Z,4348.00
2019-04-07T05:59:02.741Z,4404.00
2019-04-07T06:00:02.665Z,4460.00
2019-04-07T06:01:02.762Z,4508.00
2019-04-07T06:02:03.076Z,4560.00
2019-04-07T06:03:06.593Z,4604.00
2019-04-07T06:04:03.006Z,4656.00
2019-04-07T06:05:02.023Z,4700.00
2019-04-07T06:06:01.998Z,4752.00
2019-04-07T06:07:02.042Z,4792.00
2019-04-07T06:08:18.803Z,4848.00
2019-04-07T06:09:03.053Z,4896.00
2019-04-07T06:10:02.398Z,4948.00
2019-04-07T06:11:02.455Z,5004.00
2019-04-07T06:12:05.924Z,5068.00
2019-04-07T06:13:03.110Z,5132.00
2019-04-07T06:14:01.934Z,5204.00
2019-04-07T06:15:02.006Z,5268.00
2019-04-07T06:16:02.080Z,5352.00
2019-04-07T06:17:02.145Z,5452.00
2019-04-07T06:18:02.566Z,5552.00
2019-04-07T06:19:05.412Z,5644.00
2019-04-07T06:20:03.624Z,5756.00
2019-04-07T06:21:01.830Z,5952.00
2019-04-07T06:22:02.333Z,6104.00
2019-04-07T06:23:02.074Z,6112.00
2019-04-07T06:24:02.478Z,6120.00
2019-04-07T06:25:04.037Z,6224.00
2019-04-07T06:26:01.759Z,6440.00
2019-04-07T06:27:01.771Z,6672.00
2019-04-07T06:28:02.224Z,6920.00
2019-04-07T06:29:01.800Z,7120.00
2019-04-07T06:30:02.426Z,7272.00
2019-04-07T06:31:02.060Z,7476.00
2019-04-07T06:32:03.608Z,10228.00
2019-04-07T06:33:01.748Z,16160.00
2019-04-07T06:34:01.666Z,18464.00
2019-04-07T06:35:01.944Z,16576.00
2019-04-07T06:36:01.662Z,16416.00
2019-04-07T06:37:02.417Z,17088.00
2019-04-07T06:38:05.304Z,16832.00
2019-04-07T06:39:02.697Z,16608.00
2019-04-07T06:40:01.604Z,17216.00
2019-04-07T06:41:02.967Z,17216.00
2019-04-07T06:42:02.534Z,17408.00
2019-04-07T06:43:04.591Z,17568.00
2019-04-07T06:44:10.089Z,17504.00
2019-04-07T06:45:02.539Z,18176.00
2019-04-07T06:46:01.764Z,18272.00
2019-04-07T06:47:03.869Z,18688.00
2019-04-07T06:48:07.017Z,18272.00
2019-04-07T06:49:02.683Z,18240.00
2019-04-07T06:50:01.892Z,18720.00
2019-04-07T06:51:01.779Z,18784.00
2019-04-07T06:52:04.135Z,18880.00
2019-04-07T06:53:01.539Z,19008.00
2019-04-07T06:54:02.281Z,18176.00
2019-04-07T06:55:01.429Z,16576.00
2019-04-07T06:56:03.061Z,13688.00
2019-04-07T06:57:05.018Z,10440.00
2019-04-07T06:58:02.100Z,9336.00
2019-04-07T06:59:01.406Z,9180.00
2019-04-07T07:00:02.331Z,9028.00
2019-04-07T07:01:02.547Z,8948.00
2019-04-07T07:02:02.184Z,8888.00
2019-04-07T07:03:04.084Z,8824.00
2019-04-07T07:04:01.823Z,8748.00
2019-04-07T07:05:01.320Z,8692.00
2019-04-07T07:06:01.389Z,8680.00
2019-04-07T07:07:01.290Z,8700.00
2019-04-07T07:08:01.971Z,8688.00
2019-04-07T07:09:02.016Z,8644.00
2019-04-07T07:10:02.119Z,8600.00
2019-04-07T07:11:01.926Z,8556.00
2019-04-07T07:12:01.657Z,8560.00
2019-04-07T07:13:05.104Z,8596.00
2019-04-07T07:14:02.354Z,8664.00
2019-04-07T07:15:03.121Z,8764.00
2019-04-07T07:16:01.579Z,8900.00
2019-04-07T07:17:01.827Z,9064.00
2019-04-07T07:18:01.211Z,9304.00
2019-04-07T07:19:02.170Z,10140.00
2019-04-07T07:20:03.617Z,13372.00
2019-04-07T07:21:03.669Z,18912.00
2019-04-07T07:22:01.246Z,23712.00
2019-04-07T07:23:01.120Z,25792.00
2019-04-07T07:24:01.264Z,26048.00
2019-04-07T07:25:01.351Z,26304.00
2019-04-07T07:26:03.097Z,26144.00
2019-04-07T07:27:04.385Z,25632.00
2019-04-07T07:28:01.670Z,26176.00
2019-04-07T07:29:01.049Z,26912.00
2019-04-07T07:30:01.294Z,26848.00
2019-04-07T07:31:01.028Z,26880.00
2019-04-07T07:32:03.806Z,27904.00
2019-04-07T07:33:01.021Z,28576.00
2019-04-07T07:34:01.020Z,28704.00
2019-04-07T07:35:01.009Z,29120.00
2019-04-07T07:36:01.314Z,29472.00
2019-04-07T07:37:00.967Z,29408.00
2019-04-07T07:38:01.050Z,30080.00
2019-04-07T07:39:02.998Z,31232.00
2019-04-07T07:40:01.043Z,31136.00
2019-04-07T07:41:02.352Z,30560.00
2019-04-07T07:42:01.732Z,30656.00
2019-04-07T07:43:00.900Z,31424.00
2019-04-07T07:44:03.606Z,32064.00
2019-04-07T07:45:01.593Z,33024.00
2019-04-07T07:46:00.902Z,33376.00
2019-04-07T07:47:01.492Z,33248.00
2019-04-07T07:48:01.008Z,31840.00
2019-04-07T07:49:02.100Z,32320.00
2019-04-07T07:50:04.878Z,33920.00
2019-04-07T07:51:01.241Z,35104.00
2019-04-07T07:52:01.466Z,34880.00
2019-04-07T07:53:01.397Z,33888.00
2019-04-07T07:54:02.009Z,33248.00
2019-04-07T07:55:02.747Z,33792.00
2019-04-07T07:56:01.001Z,35456.00
2019-04-07T07:57:01.333Z,36832.00
2019-04-07T07:58:01.057Z,37888.00
2019-04-07T07:59:01.783Z,38784.00
2019-04-07T08:00:04.563Z,38880.00
2019-04-07T08:01:01.706Z,38816.00
2019-04-07T08:02:01.351Z,39072.00
2019-04-07T08:03:00.764Z,39936.00
2019-04-07T08:04:00.837Z,39040.00
2019-04-07T08:05:00.707Z,38944.00
2019-04-07T08:06:04.686Z,39424.00
2019-04-07T08:07:02.612Z,39840.00
2019-04-07T08:08:00.660Z,39424.00
2019-04-07T08:09:09.931Z,39744.00
2019-04-07T08:10:01.639Z,40352.00
2019-04-07T08:11:02.645Z,40576.00
2019-04-07T08:12:02.453Z,40832.00
2019-04-07T08:13:02.660Z,41984.00
2019-04-07T08:14:02.255Z,42400.00
2019-04-07T08:15:01.789Z,42336.00
2019-04-07T08:16:00.574Z,41856.00
2019-04-07T08:17:03.341Z,42624.00
2019-04-07T08:18:03.379Z,43424.00
2019-04-07T08:19:01.561Z,43648.00
2019-04-07T08:20:01.066Z,43808.00
2019-04-07T08:21:00.575Z,44096.00
2019-04-07T08:22:00.634Z,44864.00
2019-04-07T08:23:00.736Z,45472.00
2019-04-07T08:24:00.446Z,46368.00
2019-04-07T08:25:02.443Z,47168.00
2019-04-07T08:26:00.506Z,47040.00
2019-04-07T08:27:00.486Z,46944.00
2019-04-07T08:28:03.717Z,46976.00
2019-04-07T08:29:01.215Z,46912.00
2019-04-07T08:30:00.384Z,48288.00
2019-04-07T08:31:00.828Z,49312.00
2019-04-07T08:32:00.355Z,49088.00
2019-04-07T08:33:01.394Z,48960.00
2019-04-07T08:34:01.326Z,49888.00
2019-04-07T08:35:03.783Z,50336.00
2019-04-07T08:36:00.418Z,48960.00
2019-04-07T08:37:00.875Z,47872.00
2019-04-07T08:38:00.970Z,48832.00
2019-04-07T08:39:00.635Z,50272.00
2019-04-07T08:40:04.277Z,51360.00
2019-04-07T08:41:01.968Z,51872.00
2019-04-07T08:42:01.163Z,52384.00
2019-04-07T08:43:00.483Z,52672.00
2019-04-07T08:44:00.248Z,53344.00
2019-04-07T08:45:00.669Z,53536.00
2019-04-07T08:46:02.282Z,53408.00
2019-04-07T08:47:00.335Z,52704.00
2019-04-07T08:48:00.757Z,52736.00
2019-04-07T08:49:00.247Z,51840.00
2019-04-07T08:50:00.174Z,50976.00
2019-04-07T08:51:01.025Z,51008.00
2019-04-07T08:52:04.032Z,50592.00
2019-04-07T08:53:02.047Z,49408.00
2019-04-07T08:54:00.234Z,50048.00
2019-04-07T08:55:00.205Z,50112.00
2019-04-07T08:56:00.103Z,50048.00
2019-04-07T08:57:00.284Z,48960.00
2019-04-07T08:58:02.496Z,49472.00
2019-04-07T08:59:00.088Z,50208.00
2019-04-07T09:00:00.055Z,49888.00
2019-04-07T09:01:00.227Z,50752.00
2019-04-07T09:02:00.068Z,50592.00
2019-04-07T09:03:09.717Z,51008.00
2019-04-07T09:04:01.267Z,51232.00
2019-04-07T09:05:00.252Z,52480.00
2019-04-07T09:05:59.991Z,54016.00
2019-04-07T09:07:02.909Z,55360.00
2019-04-07T09:08:03.530Z,55264.00
2019-04-07T09:09:01.503Z,54784.00
2019-04-07T09:09:59.988Z,55104.00
2019-04-07T09:10:59.970Z,55616.00
2019-04-07T09:12:00.427Z,55808.00
2019-04-07T09:13:03.047Z,56896.00
2019-04-07T09:14:00.224Z,56736.00
2019-04-07T09:15:03.147Z,55968.00
2019-04-07T09:16:00.884Z,55488.00
2019-04-07T09:16:59.946Z,56736.00
2019-04-07T09:17:59.871Z,55616.00
2019-04-07T09:19:04.392Z,55488.00
2019-04-07T09:20:00.855Z,56192.00
2019-04-07T09:21:00.744Z,56096.00
2019-04-07T09:22:00.621Z,55424.00
2019-04-07T09:23:00.564Z,56576.00
2019-04-07T09:24:00.296Z,57408.00
2019-04-07T09:25:03.441Z,56352.00
2019-04-07T09:26:01.512Z,54976.00
2019-04-07T09:26:59.776Z,54944.00
2019-04-07T09:27:59.769Z,56384.00
2019-04-07T09:28:59.793Z,58272.00
2019-04-07T09:29:59.947Z,59008.00
2019-04-07T09:31:02.141Z,59456.00
2019-04-07T09:31:59.720Z,59808.00
2019-04-07T09:32:59.751Z,60352.00
2019-04-07T09:33:59.872Z,61056.00
2019-04-07T09:34:59.737Z,60672.00
2019-04-07T09:36:00.617Z,60480.00
2019-04-07T09:37:00.246Z,61184.00
2019-04-07T09:38:00.339Z,61824.00
2019-04-07T09:39:02.629Z,62432.00
2019-04-07T09:40:02.055Z,63456.00
2019-04-07T09:41:00.498Z,63744.00
2019-04-07T09:41:59.628Z,63008.00
2019-04-07T09:43:01.108Z,63168.00
2019-04-07T09:44:01.518Z,64096.00
2019-04-07T09:45:00.630Z,63968.00
2019-04-07T09:45:59.590Z,59680.00
2019-04-07T09:46:59.643Z,60192.00
2019-04-07T09:47:59.977Z,60448.00
2019-04-07T09:48:59.983Z,59968.00
2019-04-07T09:50:00.404Z,60160.00
2019-04-07T09:51:06.405Z,59936.00
2019-04-07T09:52:01.014Z,60608.00
2019-04-07T09:52:59.550Z,62368.00
2019-04-07T09:54:00.322Z,61344.00
2019-04-07T09:54:59.572Z,61696.00
2019-04-07T09:55:59.486Z,62016.00
2019-04-07T09:57:03.421Z,61088.00
2019-04-07T09:58:01.243Z,59872.00
2019-04-07T09:59:00.294Z,59232.00
2019-04-07T09:59:59.478Z,59648.00
2019-04-07T10:00:59.717Z,61056.00
2019-04-07T10:02:01.168Z,58432.00
2019-04-07T10:03:00.253Z,61216.00
2019-04-07T10:03:59.411Z,61184.00
2019-04-07T10:04:59.429Z,61760.00
2019-04-07T10:05:59.383Z,64320.00
2019-04-07T10:06:59.455Z,65184.00
2019-04-07T10:07:59.342Z,65536.00
2019-04-07T10:09:00.034Z,65632.00
2019-04-07T10:10:10.063Z,64064.00
2019-04-07T10:11:00.656Z,63296.00
2019-04-07T10:11:59.378Z,64160.00
2019-04-07T10:12:59.757Z,63744.00
2019-04-07T10:13:59.353Z,64384.00
2019-04-07T10:14:59.754Z,65184.00
2019-04-07T10:15:59.885Z,63808.00
2019-04-07T10:16:59.521Z,63872.00
2019-04-07T10:17:59.793Z,63232.00
2019-04-07T10:18:59.249Z,63200.00
2019-04-07T10:19:59.904Z,63264.00
2019-04-07T10:20:59.924Z,62848.00
2019-04-07T10:22:01.471Z,63904.00
2019-04-07T10:22:59.185Z,63840.00
2019-04-07T10:23:59.367Z,64352.00
2019-04-07T10:24:59.182Z,64352.00
2019-04-07T10:25:59.174Z,64128.00
2019-04-07T10:26:59.157Z,65920.00
2019-04-07T10:27:59.188Z,65408.00
2019-04-07T10:28:59.515Z,65280.00
2019-04-07T10:29:59.289Z,62688.00
2019-04-07T10:30:59.774Z,63584.00
2019-04-07T10:31:59.278Z,64544.00
2019-04-07T10:33:00.079Z,63552.00
2019-04-07T10:33:59.103Z,62240.00
2019-04-07T10:34:59.292Z,62720.00
2019-04-07T10:35:59.076Z,64448.00
2019-04-07T10:37:01.561Z,61856.00
2019-04-07T10:37:59.058Z,61824.00
2019-04-07T10:38:59.044Z,63424.00
2019-04-07T10:40:00.378Z,62752.00
2019-04-07T10:40:59.471Z,61792.00
2019-04-07T10:41:59.087Z,59648.00
2019-04-07T10:42:59.774Z,60672.00
2019-04-07T10:43:59.084Z,61248.00
2019-04-07T10:44:58.945Z,62400.00
2019-04-07T10:45:59.037Z,57728.00
2019-04-07T10:46:59.275Z,57248.00
2019-04-07T10:47:59.025Z,63648.00
2019-04-07T10:48:59.154Z,61856.00
2019-04-07T10:50:05.178Z,63424.00
2019-04-07T10:51:00.215Z,62944.00
2019-04-07T10:51:59.326Z,62784.00
2019-04-07T10:52:58.885Z,61824.00
2019-04-07T10:53:58.957Z,60416.00
2019-04-07T10:54:59.446Z,62208.00
2019-04-07T10:55:58.903Z,62464.00
2019-04-07T10:56:58.822Z,63488.00
2019-04-07T10:57:59.744Z,63008.00
2019-04-07T10:58:59.396Z,63296.00
2019-04-07T10:59:58.906Z,63872.00
2019-04-07T11:00:59.692Z,59328.00
2019-04-07T11:01:58.779Z,53984.00
2019-04-07T11:02:58.757Z,56672.00
2019-04-07T11:03:59.422Z,60256.00
2019-04-07T11:04:58.805Z,60960.00
2019-04-07T11:05:59.350Z,60032.00
2019-04-07T11:06:58.719Z,61056.00
2019-04-07T11:07:58.802Z,60480.00
2019-04-07T11:08:59.015Z,58592.00
2019-04-07T11:09:59.033Z,57792.00
2019-04-07T11:10:58.704Z,57824.00
2019-04-07T11:11:58.919Z,56640.00
2019-04-07T11:12:58.659Z,56768.00
2019-04-07T11:13:58.802Z,58560.00
2019-04-07T11:14:59.047Z,58208.00
2019-04-07T11:15:59.149Z,57280.00
2019-04-07T11:17:00.243Z,57472.00
2019-04-07T11:17:59.263Z,56704.00
2019-04-07T11:18:58.667Z,56768.00
2019-04-07T11:19:59.083Z,56032.00
2019-04-07T11:20:58.711Z,55104.00
2019-04-07T11:21:58.654Z,54400.00
2019-04-07T11:22:58.549Z,53984.00
2019-04-07T11:23:58.947Z,53408.00
2019-04-07T11:24:59.171Z,55456.00
2019-04-07T11:25:59.413Z,55232.00
2019-04-07T11:26:59.322Z,54272.00
2019-04-07T11:27:59.417Z,54080.00
2019-04-07T11:28:59.385Z,54496.00
2019-04-07T11:29:58.569Z,51584.00
2019-04-07T11:30:58.546Z,50272.00
2019-04-07T11:31:59.238Z,44928.00
2019-04-07T11:32:58.897Z,20640.00
2019-04-07T11:33:58.863Z,9648.00
2019-04-07T11:34:58.503Z,9244.00
2019-04-07T11:35:58.556Z,9028.00
2019-04-07T11:36:58.413Z,8840.00
2019-04-07T11:37:58.483Z,8708.00
2019-04-07T11:38:58.596Z,8436.00
2019-04-07T11:39:59.497Z,8260.00
2019-04-07T11:40:58.401Z,8112.00
2019-04-07T11:41:59.023Z,7988.00
2019-04-07T11:42:58.973Z,7928.00
2019-04-07T11:43:59.237Z,7840.00
2019-04-07T11:44:58.610Z,7804.00
2019-04-07T11:46:02.485Z,7684.00
2019-04-07T11:46:58.311Z,7652.00
2019-04-07T11:47:59.090Z,7724.00
2019-04-07T11:48:59.090Z,7748.00
2019-04-07T11:49:58.287Z,7656.00
2019-04-07T11:50:58.783Z,7544.00
2019-04-07T11:51:58.282Z,7440.00
2019-04-07T11:52:58.233Z,7284.00
2019-04-07T11:53:58.842Z,7204.00
2019-04-07T11:54:58.206Z,7104.00
2019-04-07T11:55:58.211Z,7016.00
2019-04-07T11:56:58.963Z,6916.00
2019-04-07T11:58:09.512Z,6828.00
2019-04-07T11:58:59.164Z,6784.00
2019-04-07T11:59:58.162Z,6816.00
2019-04-07T12:00:58.221Z,6852.00
2019-04-07T12:01:58.631Z,6844.00
2019-04-07T12:02:58.123Z,6812.00
2019-04-07T12:03:59.013Z,6768.00
2019-04-07T12:04:58.914Z,6764.00
2019-04-07T12:05:58.147Z,6752.00
2019-04-07T12:06:58.142Z,6716.00
2019-04-07T12:07:58.757Z,6684.00
2019-04-07T12:08:58.923Z,6668.00
2019-04-07T12:09:58.476Z,6640.00
2019-04-07T12:11:02.171Z,6624.00
2019-04-07T12:11:59.287Z,6568.00
2019-04-07T12:12:58.010Z,6492.00
2019-04-07T12:13:58.681Z,6456.00
2019-04-07T12:14:58.809Z,6444.00
2019-04-07T12:15:58.119Z,6440.00
2019-04-07T12:17:00.182Z,6372.00
2019-04-07T12:17:58.086Z,6280.00
2019-04-07T12:18:57.981Z,6156.00
2019-04-07T12:19:58.215Z,6068.00
2019-04-07T12:21:00.948Z,5992.00
2019-04-07T12:21:58.946Z,5972.00